Todmorden, United Kingdom
Current Conditions -  °F | °C
As of 4:50 PM on Friday 21 Nov 2014 (Local Time) from EGNM Reporting Station
Light Rain Light Rain  
Wind Chill: 35°   Ceiling: 500
Heat Index: 43°   Visibility: 2.1mi
Dew Point: 43°   Wind: 16mph
Humidity: 100%   Direction: 120°ESE
Pressure: 29.94"   Gusts: NA
Location:  53.71°N, 2.1°W
Report Text: EGNM 211650Z 12014KT 3500 -RA BR SCT003 BKN005 06/06 Q1014
Loading
Personal Weather Stations






























Interactive Weather Map New forecast layout! Learn more

10-Day Weather Forecast

Advertisements
Track Severe Weather on mobile